Time;durP1;ratioP1;P1;durP2;ratioP2;P2;SDS_P1;SDS_P2;PMS_P1;PMS_P2;Temp;Humidity;BMP_temperature;BMP_pressure;BME280_temperature;BME280_humidity;BME280_pressure;Samples;Min_cycle;Max_cycle;Signal;HPM_P1;HPM_P2
2023/03/03 00:01:27;;;;;;;;;;;;;;;;;;5087995;28;19924;-68
2023/03/03 00:03:53;;;;;;;;;;;;;;;;;;5078771;28;19942;-68
2023/03/03 00:06:18;;;;;;;;;;;;;;;;;;5088438;28;19928;-68
2023/03/03 00:08:44;;;;;;;;;;;;;;;;;;5080357;28;19935;-68
2023/03/03 00:11:10;;;;;;;;;;;;;;;;;;5093198;28;19965;-67
2023/03/03 00:13:36;;;;;;;;;;;;;;;;;;5080720;28;20292;-67
2023/03/03 00:16:02;;;;;;;;;;;;;;;;;;5090862;28;19965;-67
2023/03/03 00:18:28;;;;;;;;;;;;;;;;;;5099624;28;19924;-67
2023/03/03 00:20:54;;;;;;;;;;;;;;;;;;5093238;28;20289;-68
2023/03/03 00:23:20;;;;;;;;;;;;;;;;;;5076331;28;19951;-67
2023/03/03 00:25:46;;;;;;;;;;;;;;;;;;5091211;28;19928;-67
2023/03/03 00:28:12;;;;;;;;;;;;;;;;;;5093399;28;19970;-66
2023/03/03 00:30:38;;;;;;;;;;;;;;;;;;5090713;28;19980;-67
2023/03/03 00:33:04;;;;;;;;;;;;;;;;;;5090510;28;19920;-67
2023/03/03 00:35:30;;;;;;;;;;;;;;;;;;5089889;28;19924;-67
2023/03/03 00:37:56;;;;;;;;;;;;;;;;;;5082707;28;20488;-66
2023/03/03 00:40:22;;;;;;;;;;;;;;;;;;5094162;28;20002;-67
2023/03/03 00:42:49;;;;;;;;;;;;;;;;;;5075811;28;20031;-67
2023/03/03 00:45:15;;;;;;;;;;;;;;;;;;5071431;28;19928;-67
2023/03/03 00:47:40;;;;;;;;;;;;;;;;;;5083448;28;20277;-65
2023/03/03 00:50:06;;;;;;;;;;;;;;;;;;5092611;28;20020;-67
2023/03/03 00:52:32;;;;;;;;;;;;;;;;;;5093209;28;19997;-67
2023/03/03 00:54:58;;;;;;;;;;;;;;;;;;5093540;28;19920;-67
2023/03/03 00:57:24;;;;;;;;;;;;;;;;;;5091020;28;19931;-67
2023/03/03 00:59:50;;;;;;;;;;;;;;;;;;5093005;28;19971;-67
2023/03/03 01:02:16;;;;;;;;;;;;;;;;;;5091957;28;19928;-68
2023/03/03 01:04:42;;;;;;;;;;;;;;;;;;5092507;28;19927;-68
2023/03/03 01:07:07;;;;;;;;;;;;;;;;;;5073567;28;19935;-67
2023/03/03 01:09:33;;;;;;;;;;;;;;;;;;5089142;28;19920;-67
2023/03/03 01:11:59;;;;;;;;;;;;;;;;;;5065632;28;19924;-68
2023/03/03 01:14:25;;;;;;;;;;;;;;;;;;5091190;28;19931;-67
2023/03/03 01:16:51;;;;;;;;;;;;;;;;;;5074552;28;20363;-68
2023/03/03 01:19:17;;;;;;;;;;;;;;;;;;5092926;28;19928;-66
2023/03/03 01:21:43;;;;;;;;;;;;;;;;;;5092561;28;19924;-68
2023/03/03 01:24:09;;;;;;;;;;;;;;;;;;5080698;28;19920;-67
2023/03/03 01:26:35;;;;;;;;;;;;;;;;;;5092877;28;19920;-67
2023/03/03 01:29:01;;;;;;;;;;;;;;;;;;5092486;28;19943;-68
2023/03/03 01:31:27;;;;;;;;;;;;;;;;;;5074144;28;19931;-68
2023/03/03 01:33:53;;;;;;;;;;;;;;;;;;5091676;28;19973;-68
2023/03/03 01:36:18;;;;;;;;;;;;;;;;;;5089151;28;19964;-67
2023/03/03 01:38:44;;;;;;;;;;;;;;;;;;5091896;28;19924;-67
2023/03/03 01:41:10;;;;;;;;;;;;;;;;;;5092755;28;19977;-67
2023/03/03 01:43:36;;;;;;;;;;;;;;;;;;5093305;28;19924;-67
2023/03/03 01:46:02;;;;;;;;;;;;;;;;;;5080962;28;20285;-67
2023/03/03 01:48:28;;;;;;;;;;;;;;;;;;5101570;27;19959;-66
2023/03/03 01:50:54;;;;;;;;;;;;;;;;;;5127225;27;20007;-67
2023/03/03 01:53:20;;;;;;;;;;;;;;;;;;5124755;27;19923;-67
2023/03/03 01:55:46;;;;;;;;;;;;;;;;;;5122449;27;20015;-68
2023/03/03 01:58:11;;;;;;;;;;;;;;;;;;5099559;28;19931;-68
2023/03/03 02:00:37;;;;;;;;;;;;;;;;;;5122266;27;19924;-67
2023/03/03 02:03:03;;;;;;;;;;;;;;;;;;5111536;27;19920;-67
2023/03/03 02:05:29;;;;;;;;;;;;;;;;;;5121986;27;19926;-67
2023/03/03 02:07:55;;;;;;;;;;;;;;;;;;5112717;27;19924;-67
2023/03/03 02:10:21;;;;;;;;;;;;;;;;;;5117338;27;19934;-67
2023/03/03 02:12:47;;;;;;;;;;;;;;;;;;5101675;28;19927;-68
2023/03/03 02:15:13;;;;;;;;;;;;;;;;;;5080951;27;19920;-68
2023/03/03 02:17:39;;;;;;;;;;;;;;;;;;5121409;27;19976;-68
2023/03/03 02:20:05;;;;;;;;;;;;;;;;;;5123169;27;20376;-67
2023/03/03 02:22:31;;;;;;;;;;;;;;;;;;5128842;27;19919;-67
2023/03/03 02:24:58;;;;;;;;;;;;;;;;;;5114182;27;20281;-68
2023/03/03 02:27:24;;;;;;;;;;;;;;;;;;5103968;28;19965;-68
2023/03/03 02:29:51;;;;;;;;;;;;;;;;;;5125257;27;20509;-67
2023/03/03 02:32:17;;;;;;;;;;;;;;;;;;5118086;27;19935;-67
2023/03/03 02:34:42;;;;;;;;;;;;;;;;;;5111732;27;19924;-66
2023/03/03 02:37:08;;;;;;;;;;;;;;;;;;5092164;28;23633;-66
2023/03/03 02:39:34;;;;;;;;;;;;;;;;;;5118564;27;20011;-67
2023/03/03 02:42:00;;;;;;;;;;;;;;;;;;5125429;27;19927;-66
2023/03/03 02:44:26;;;;;;;;;;;;;;;;;;5113121;27;19923;-67
2023/03/03 02:46:53;;;;;;;;;;;;;;;;;;5111449;28;19926;-67
2023/03/03 02:49:18;;;;;;;;;;;;;;;;;;5096702;28;20517;-67
2023/03/03 02:51:44;;;;;;;;;;;;;;;;;;5090245;28;19924;-67
2023/03/03 02:54:10;;;;;;;;;;;;;;;;;;5081732;28;19973;-67
2023/03/03 02:56:36;;;;;;;;;;;;;;;;;;5075470;28;19927;-67
2023/03/03 02:59:02;;;;;;;;;;;;;;;;;;5089884;28;19931;-67
2023/03/03 03:01:30;;;;;;;;;;;;;;;;;;5078867;28;19977;-67
2023/03/03 03:03:56;;;;;;;;;;;;;;;;;;5091641;28;19935;-67
2023/03/03 03:06:22;;;;;;;;;;;;;;;;;;5088928;28;20295;-67
2023/03/03 03:08:48;;;;;;;;;;;;;;;;;;5071803;28;19920;-67
2023/03/03 03:11:14;;;;;;;;;;;;;;;;;;5091477;28;20289;-67
2023/03/03 03:13:40;;;;;;;;;;;;;;;;;;5088989;28;20305;-66
2023/03/03 03:16:06;;;;;;;;;;;;;;;;;;5065931;28;20078;-66
2023/03/03 03:18:32;;;;;;;;;;;;;;;;;;5090092;28;20384;-67
2023/03/03 03:20:58;;;;;;;;;;;;;;;;;;5089601;28;19928;-67
2023/03/03 03:23:23;;;;;;;;;;;;;;;;;;5086549;28;20504;-67
2023/03/03 03:25:49;;;;;;;;;;;;;;;;;;5093391;28;19921;-67
2023/03/03 03:28:15;;;;;;;;;;;;;;;;;;5088113;28;20415;-67
2023/03/03 03:30:42;;;;;;;;;;;;;;;;;;5067530;28;19923;-67
2023/03/03 03:33:09;;;;;;;;;;;;;;;;;;5090441;28;19924;-67
2023/03/03 03:35:34;;;;;;;;;;;;;;;;;;5084928;28;19956;-67
2023/03/03 03:38:00;;;;;;;;;;;;;;;;;;5087870;28;19928;-67
2023/03/03 03:40:26;;;;;;;;;;;;;;;;;;5089231;28;20011;-67
2023/03/03 03:42:52;;;;;;;;;;;;;;;;;;5093910;28;20387;-66
2023/03/03 03:45:18;;;;;;;;;;;;;;;;;;5094712;28;19986;-67
2023/03/03 03:47:44;;;;;;;;;;;;;;;;;;5103720;28;19924;-67
2023/03/03 03:50:10;;;;;;;;;;;;;;;;;;5099890;28;20320;-68
2023/03/03 03:52:36;;;;;;;;;;;;;;;;;;5091384;28;19920;-68
2023/03/03 03:55:02;;;;;;;;;;;;;;;;;;5093516;28;20524;-67
2023/03/03 03:57:27;;;;;;;;;;;;;;;;;;5093965;28;20369;-67
2023/03/03 03:59:53;;;;;;;;;;;;;;;;;;5094912;28;19955;-67
2023/03/03 04:02:19;;;;;;;;;;;;;;;;;;5091519;28;20288;-67
2023/03/03 04:04:45;;;;;;;;;;;;;;;;;;5092436;28;19926;-68
2023/03/03 04:07:11;;;;;;;;;;;;;;;;;;5074616;28;20019;-68
2023/03/03 04:09:37;;;;;;;;;;;;;;;;;;5095388;28;19924;-68
2023/03/03 04:12:03;;;;;;;;;;;;;;;;;;5091851;28;19920;-68
2023/03/03 04:14:29;;;;;;;;;;;;;;;;;;5093413;28;19920;-67
2023/03/03 04:16:55;;;;;;;;;;;;;;;;;;5092202;28;19939;-67
2023/03/03 04:19:20;;;;;;;;;;;;;;;;;;5083825;28;19920;-67
2023/03/03 04:21:46;;;;;;;;;;;;;;;;;;5084831;28;19928;-67
2023/03/03 04:24:12;;;;;;;;;;;;;;;;;;5092314;28;19927;-66
2023/03/03 04:26:38;;;;;;;;;;;;;;;;;;5085604;28;19924;-67
2023/03/03 04:29:04;;;;;;;;;;;;;;;;;;5092813;28;19928;-67
2023/03/03 04:31:30;;;;;;;;;;;;;;;;;;5083687;28;19920;-66
2023/03/03 04:33:56;;;;;;;;;;;;;;;;;;5083614;28;19928;-67
2023/03/03 04:36:22;;;;;;;;;;;;;;;;;;5075764;28;20273;-67
2023/03/03 04:38:48;;;;;;;;;;;;;;;;;;5072191;28;19966;-67
2023/03/03 04:41:14;;;;;;;;;;;;;;;;;;5093787;28;19924;-67
2023/03/03 04:43:39;;;;;;;;;;;;;;;;;;5090609;28;19928;-67
2023/03/03 04:46:05;;;;;;;;;;;;;;;;;;5083011;28;19931;-66
2023/03/03 04:48:31;;;;;;;;;;;;;;;;;;5104516;27;20408;-67
2023/03/03 04:50:57;;;;;;;;;;;;;;;;;;5116450;27;19927;-68
2023/03/03 04:53:23;;;;;;;;;;;;;;;;;;5097339;27;20402;-68
2023/03/03 04:55:49;;;;;;;;;;;;;;;;;;5121012;27;19923;-68
2023/03/03 04:58:15;;;;;;;;;;;;;;;;;;5097893;28;19924;-68
2023/03/03 05:00:41;;;;;;;;;;;;;;;;;;5119907;27;19920;-67
2023/03/03 05:03:07;;;;;;;;;;;;;;;;;;5126441;27;19923;-68
2023/03/03 05:05:33;;;;;;;;;;;;;;;;;;5121720;27;19931;-67
2023/03/03 05:07:58;;;;;;;;;;;;;;;;;;5106282;27;19930;-67
2023/03/03 05:10:25;;;;;;;;;;;;;;;;;;5125053;27;20010;-67
2023/03/03 05:12:50;;;;;;;;;;;;;;;;;;5119141;27;19971;-67
2023/03/03 05:15:16;;;;;;;;;;;;;;;;;;5130806;27;20412;-66
2023/03/03 05:17:42;;;;;;;;;;;;;;;;;;5127861;27;19924;-67
2023/03/03 05:20:09;;;;;;;;;;;;;;;;;;5109053;27;19920;-67
2023/03/03 05:22:35;;;;;;;;;;;;;;;;;;5128046;27;19923;-67
2023/03/03 05:25:00;;;;;;;;;;;;;;;;;;5117745;27;20030;-67
2023/03/03 05:27:26;;;;;;;;;;;;;;;;;;5118916;27;20327;-67
2023/03/03 05:29:52;;;;;;;;;;;;;;;;;;5117065;27;19920;-67
2023/03/03 05:32:18;;;;;;;;;;;;;;;;;;5090554;27;19959;-67
2023/03/03 05:34:44;;;;;;;;;;;;;;;;;;5122264;27;19930;-67
2023/03/03 05:37:10;;;;;;;;;;;;;;;;;;5116317;27;20018;-67
2023/03/03 05:39:36;;;;;;;;;;;;;;;;;;5109938;28;20384;-67
2023/03/03 05:42:02;;;;;;;;;;;;;;;;;;5106720;27;19948;-67
2023/03/03 05:44:28;;;;;;;;;;;;;;;;;;5116292;27;19977;-67
2023/03/03 05:46:55;;;;;;;;;;;;;;;;;;5076815;28;19919;-67
2023/03/03 05:49:21;;;;;;;;;;;;;;;;;;5123840;27;20010;-67
2023/03/03 05:51:47;;;;;;;;;;;;;;;;;;5111140;27;20030;-67
2023/03/03 05:54:13;;;;;;;;;;;;;;;;;;5107073;28;19920;-67
2023/03/03 05:56:38;;;;;;;;;;;;;;;;;;5112634;27;19924;-66
2023/03/03 05:59:04;;;;;;;;;;;;;;;;;;5122678;27;19923;-67
2023/03/03 06:01:31;;;;;;;;;;;;;;;;;;5092216;27;19965;-67
2023/03/03 06:03:57;;;;;;;;;;;;;;;;;;5101450;27;20646;-67
2023/03/03 06:06:23;;;;;;;;;;;;;;;;;;5122973;27;19924;-67
2023/03/03 06:08:49;;;;;;;;;;;;;;;;;;5093087;28;19924;-67
2023/03/03 06:11:17;;;;;;;;;;;;;;;;;;5124185;27;19926;-67
2023/03/03 06:13:43;;;;;;;;;;;;;;;;;;5126694;27;20322;-67
2023/03/03 06:16:09;;;;;;;;;;;;;;;;;;5130111;27;19920;-67
2023/03/03 06:18:35;;;;;;;;;;;;;;;;;;5116148;27;19931;-67
2023/03/03 06:21:00;;;;;;;;;;;;;;;;;;5109685;27;20577;-68
2023/03/03 06:23:26;;;;;;;;;;;;;;;;;;5122669;27;19928;-68
2023/03/03 06:25:52;;;;;;;;;;;;;;;;;;5125491;27;19938;-68
2023/03/03 06:28:18;;;;;;;;;;;;;;;;;;5124452;27;20012;-68
2023/03/03 06:30:44;;;;;;;;;;;;;;;;;;5119141;27;20374;-68
2023/03/03 06:33:10;;;;;;;;;;;;;;;;;;5120254;27;19967;-67
2023/03/03 06:35:36;;;;;;;;;;;;;;;;;;5124517;27;19930;-67
2023/03/03 06:38:02;;;;;;;;;;;;;;;;;;5121751;27;19936;-67
2023/03/03 06:40:28;;;;;;;;;;;;;;;;;;5109259;28;19924;-67
2023/03/03 06:42:54;;;;;;;;;;;;;;;;;;5110852;28;19919;-67
2023/03/03 06:45:20;;;;;;;;;;;;;;;;;;5100301;27;20031;-68
2023/03/03 06:47:46;;;;;;;;;;;;;;;;;;5126960;27;20328;-67
2023/03/03 06:50:11;;;;;;;;;;;;;;;;;;5117479;27;19924;-66
2023/03/03 06:52:37;;;;;;;;;;;;;;;;;;5111797;28;19934;-66
2023/03/03 06:55:03;;;;;;;;;;;;;;;;;;5105954;28;19953;-67
2023/03/03 06:57:29;;;;;;;;;;;;;;;;;;5109850;28;19927;-68
2023/03/03 06:59:55;;;;;;;;;;;;;;;;;;5093946;28;19974;-67
2023/03/03 07:02:21;;;;;;;;;;;;;;;;;;5110312;28;19919;-67
2023/03/03 07:04:47;;;;;;;;;;;;;;;;;;5110241;28;19924;-67
2023/03/03 07:07:13;;;;;;;;;;;;;;;;;;5094068;28;19924;-67
2023/03/03 07:09:39;;;;;;;;;;;;;;;;;;5093753;28;20015;-67
2023/03/03 07:12:04;;;;;;;;;;;;;;;;;;5108041;28;19924;-67
2023/03/03 07:14:30;;;;;;;;;;;;;;;;;;5110921;28;20379;-67
2023/03/03 07:16:56;;;;;;;;;;;;;;;;;;5110789;28;20183;-67
2023/03/03 07:19:22;;;;;;;;;;;;;;;;;;5112002;27;19948;-67
2023/03/03 07:21:48;;;;;;;;;;;;;;;;;;5117318;27;20396;-67
2023/03/03 07:24:14;;;;;;;;;;;;;;;;;;5116174;28;19927;-67
2023/03/03 07:26:40;;;;;;;;;;;;;;;;;;5111925;28;19972;-67
2023/03/03 07:29:06;;;;;;;;;;;;;;;;;;5113185;28;19958;-68
2023/03/03 07:31:32;;;;;;;;;;;;;;;;;;5120689;28;19937;-67
2023/03/03 07:33:58;;;;;;;;;;;;;;;;;;5105758;28;19955;-67
2023/03/03 07:36:23;;;;;;;;;;;;;;;;;;5111756;28;20031;-67
2023/03/03 07:38:49;;;;;;;;;;;;;;;;;;5113662;28;20054;-68
2023/03/03 07:41:15;;;;;;;;;;;;;;;;;;5108723;28;19920;-67
2023/03/03 07:43:41;;;;;;;;;;;;;;;;;;5114729;28;20292;-66
2023/03/03 07:46:07;;;;;;;;;;;;;;;;;;5095148;28;19927;-66
2023/03/03 07:48:33;;;;;;;;;;;;;;;;;;5109693;28;19996;-66
2023/03/03 07:50:59;;;;;;;;;;;;;;;;;;5117254;28;19920;-67
2023/03/03 07:53:25;;;;;;;;;;;;;;;;;;5111795;28;20423;-67
2023/03/03 07:55:51;;;;;;;;;;;;;;;;;;5091316;28;19927;-67
2023/03/03 07:58:17;;;;;;;;;;;;;;;;;;5097997;28;20414;-67
2023/03/03 08:00:43;;;;;;;;;;;;;;;;;;5089874;28;19926;-67
2023/03/03 08:03:09;;;;;;;;;;;;;;;;;;5109767;28;19923;-68
2023/03/03 08:05:34;;;;;;;;;;;;;;;;;;5109105;28;20426;-68
2023/03/03 08:08:00;;;;;;;;;;;;;;;;;;5115231;28;19920;-68
2023/03/03 08:10:26;;;;;;;;;;;;;;;;;;5110770;28;19923;-68
2023/03/03 08:12:52;;;;;;;;;;;;;;;;;;5110344;28;19963;-67
2023/03/03 08:15:18;;;;;;;;;;;;;;;;;;5108142;28;20399;-67
2023/03/03 08:17:44;;;;;;;;;;;;;;;;;;5116698;28;20254;-67
2023/03/03 08:20:10;;;;;;;;;;;;;;;;;;5109433;28;19978;-68
2023/03/03 08:22:36;;;;;;;;;;;;;;;;;;5117051;28;19991;-68
2023/03/03 08:25:02;;;;;;;;;;;;;;;;;;5082842;28;20292;-68
2023/03/03 08:27:28;;;;;;;;;;;;;;;;;;5098257;28;19949;-67
2023/03/03 08:29:54;;;;;;;;;;;;;;;;;;5116264;27;20372;-66
2023/03/03 08:32:20;;;;;;;;;;;;;;;;;;5128111;27;19919;-67
2023/03/03 08:34:45;;;;;;;;;;;;;;;;;;5113184;27;19970;-67
2023/03/03 08:37:11;;;;;;;;;;;;;;;;;;5119540;27;19923;-68
2023/03/03 08:39:37;;;;;;;;;;;;;;;;;;5101526;27;19927;-67
2023/03/03 08:42:03;;;;;;;;;;;;;;;;;;5100225;28;20402;-67
2023/03/03 08:44:29;;;;;;;;;;;;;;;;;;5111608;28;19924;-67
2023/03/03 08:46:55;;;;;;;;;;;;;;;;;;5121767;27;20288;-66
2023/03/03 08:49:21;;;;;;;;;;;;;;;;;;5126621;27;20003;-66
2023/03/03 08:51:56;;;;;;;;;;;;;;;;;;5119528;27;19926;-66
2023/03/03 08:54:22;;;;;;;;;;;;;;;;;;5110709;27;19924;-67
2023/03/03 08:56:48;;;;;;;;;;;;;;;;;;5116309;27;19968;-67
2023/03/03 08:59:14;;;;;;;;;;;;;;;;;;5114215;27;19919;-68
2023/03/03 09:01:43;;;;;;;;;;;;;;;;;;5112526;27;19931;-68
2023/03/03 09:04:09;;;;;;;;;;;;;;;;;;5096165;27;19976;-67
2023/03/03 09:06:35;;;;;;;;;;;;;;;;;;5129704;27;19934;-68
2023/03/03 09:09:04;;;;;;;;;;;;;;;;;;5116003;27;19928;-67
2023/03/03 09:11:31;;;;;;;;;;;;;;;;;;5111536;28;19920;-67
2023/03/03 09:13:57;;;;;;;;;;;;;;;;;;5120380;27;20412;-68
2023/03/03 09:16:23;;;;;;;;;;;;;;;;;;5112861;27;19927;-67
2023/03/03 09:18:49;;;;;;;;;;;;;;;;;;5109595;27;19975;-68
2023/03/03 09:21:14;;;;;;;;;;;;;;;;;;5112334;27;19924;-67
2023/03/03 09:23:40;;;;;;;;;;;;;;;;;;5112552;27;20269;-68
2023/03/03 09:26:06;;;;;;;;;;;;;;;;;;5104174;28;19924;-68
2023/03/03 09:28:32;;;;;;;;;;;;;;;;;;5092145;28;19927;-68
2023/03/03 09:30:58;;;;;;;;;;;;;;;;;;5094120;27;19941;-67
2023/03/03 09:33:24;;;;;;;;;;;;;;;;;;5124207;27;19972;-68
2023/03/03 09:35:50;;;;;;;;;;;;;;;;;;5119884;27;19930;-66
2023/03/03 09:38:17;;;;;;;;;;;;;;;;;;5096285;27;19927;-68
2023/03/03 09:40:42;;;;;;;;;;;;;;;;;;5118086;27;19957;-68
2023/03/03 09:43:08;;;;;;;;;;;;;;;;;;5081802;28;20011;-67
2023/03/03 09:45:34;;;;;;;;;;;;;;;;;;5109198;27;19927;-68
2023/03/03 09:48:00;;;;;;;;;;;;;;;;;;5114724;27;19927;-67
2023/03/03 09:50:26;;;;;;;;;;;;;;;;;;5089037;28;19952;-67
2023/03/03 09:52:52;;;;;;;;;;;;;;;;;;5067543;28;19924;-67
2023/03/03 09:55:18;;;;;;;;;;;;;;;;;;5088636;28;20419;-67
2023/03/03 09:57:44;;;;;;;;;;;;;;;;;;5090267;28;19924;-67
2023/03/03 10:00:10;;;;;;;;;;;;;;;;;;5084089;28;20014;-67
2023/03/03 10:02:36;;;;;;;;;;;;;;;;;;5084506;28;20035;-67
2023/03/03 10:05:02;;;;;;;;;;;;;;;;;;5095437;28;19924;-68
2023/03/03 10:07:28;;;;;;;;;;;;;;;;;;5076411;28;20270;-68
2023/03/03 10:09:54;;;;;;;;;;;;;;;;;;5084199;28;19924;-68
2023/03/03 10:12:21;;;;;;;;;;;;;;;;;;5092278;28;19963;-68
2023/03/03 10:14:47;;;;;;;;;;;;;;;;;;5088955;28;19924;-67
2023/03/03 10:17:13;;;;;;;;;;;;;;;;;;5085923;28;19939;-69
2023/03/03 10:19:39;;;;;;;;;;;;;;;;;;5068955;28;19924;-69
2023/03/03 10:22:05;;;;;;;;;;;;;;;;;;5084893;28;19920;-67
2023/03/03 10:24:30;;;;;;;;;;;;;;;;;;5093446;28;19920;-67
2023/03/03 10:26:56;;;;;;;;;;;;;;;;;;5072800;28;20610;-67
2023/03/03 10:29:22;;;;;;;;;;;;;;;;;;5090974;28;19928;-68
2023/03/03 10:31:48;;;;;;;;;;;;;;;;;;5074621;28;20309;-67
2023/03/03 10:34:14;;;;;;;;;;;;;;;;;;5068469;28;19972;-67
2023/03/03 10:36:40;;;;;;;;;;;;;;;;;;5089993;28;19924;-67
2023/03/03 10:39:06;;;;;;;;;;;;;;;;;;5085003;28;19928;-68
2023/03/03 10:41:32;;;;;;;;;;;;;;;;;;5074199;28;20001;-68
2023/03/03 10:43:58;;;;;;;;;;;;;;;;;;5053958;28;19945;-68
2023/03/03 10:46:24;;;;;;;;;;;;;;;;;;5090082;28;19920;-68
2023/03/03 10:48:49;;;;;;;;;;;;;;;;;;5087981;28;19928;-67
2023/03/03 10:51:15;;;;;;;;;;;;;;;;;;5088290;28;19920;-68
2023/03/03 10:53:41;;;;;;;;;;;;;;;;;;5076400;28;20338;-67
2023/03/03 10:56:09;;;;;;;;;;;;;;;;;;5077224;28;20004;-68
2023/03/03 10:58:35;;;;;;;;;;;;;;;;;;5081733;28;19989;-67
2023/03/03 11:01:01;;;;;;;;;;;;;;;;;;5085348;28;20956;-67
2023/03/03 11:03:27;;;;;;;;;;;;;;;;;;5086054;28;19951;-67
2023/03/03 11:05:53;;;;;;;;;;;;;;;;;;5088969;28;19934;-68
2023/03/03 11:08:19;;;;;;;;;;;;;;;;;;5093284;28;19924;-67
2023/03/03 11:10:45;;;;;;;;;;;;;;;;;;5089409;28;20412;-67
2023/03/03 11:13:12;;;;;;;;;;;;;;;;;;5091440;28;19924;-68
2023/03/03 11:15:38;;;;;;;;;;;;;;;;;;5076756;28;19938;-66
2023/03/03 11:18:04;;;;;;;;;;;;;;;;;;5076446;28;19928;-67
2023/03/03 11:20:30;;;;;;;;;;;;;;;;;;5073474;28;19920;-67
2023/03/03 11:22:55;;;;;;;;;;;;;;;;;;5065947;28;19928;-67
2023/03/03 11:25:21;;;;;;;;;;;;;;;;;;5086327;28;20008;-67
2023/03/03 11:27:47;;;;;;;;;;;;;;;;;;5091334;28;20333;-67
2023/03/03 11:30:15;;;;;;;;;;;;;;;;;;5091226;28;20030;-67
2023/03/03 11:32:41;;;;;;;;;;;;;;;;;;5095733;28;19924;-68
2023/03/03 11:35:07;;;;;;;;;;;;;;;;;;5091902;28;19982;-67
2023/03/03 11:37:33;;;;;;;;;;;;;;;;;;5092738;28;19967;-67
2023/03/03 11:39:59;;;;;;;;;;;;;;;;;;5086279;28;19950;-67
2023/03/03 11:42:25;;;;;;;;;;;;;;;;;;5081100;28;20273;-67
2023/03/03 11:44:50;;;;;;;;;;;;;;;;;;5084946;28;19920;-68
2023/03/03 11:47:17;;;;;;;;;;;;;;;;;;5081538;28;19953;-67
2023/03/03 11:49:43;;;;;;;;;;;;;;;;;;5088309;28;19978;-67
2023/03/03 11:52:08;;;;;;;;;;;;;;;;;;5070196;28;19924;-66
2023/03/03 11:54:34;;;;;;;;;;;;;;;;;;5076943;28;19920;-67
2023/03/03 11:57:00;;;;;;;;;;;;;;;;;;5090571;28;20314;-67
2023/03/03 11:59:28;;;;;;;;;;;;;;;;;;5085563;28;19924;-67
2023/03/03 12:01:54;;;;;;;;;;;;;;;;;;5072368;28;19976;-67
2023/03/03 12:04:20;;;;;;;;;;;;;;;;;;5127072;22;19927;-64
2023/03/03 12:06:46;;;;;;;;;;;;;;;;;;5128326;27;19924;-64
2023/03/03 12:09:12;;;;;;;;;;;;;;;;;;5116949;27;19919;-64
2023/03/03 12:11:37;;;;;;;;;;;;;;;;;;5117899;27;20423;-64
2023/03/03 12:14:03;;;;;;;;;;;;;;;;;;5132243;27;19971;-64
2023/03/03 12:16:29;;;;;;;;;;;;;;;;;;5131951;27;20489;-65
2023/03/03 12:18:55;;;;;;;;;;;;;;;;;;5125864;27;19923;-64
2023/03/03 12:21:21;;;;;;;;;;;;;;;;;;5123082;27;19923;-64
2023/03/03 12:23:48;;;;;;;;;;;;;;;;;;5132012;27;20011;-64
2023/03/03 12:26:13;;;;;;;;;;;;;;;;;;5132720;27;19927;-64
2023/03/03 12:28:39;;;;;;;;;;;;;;;;;;5135035;27;19919;-64
2023/03/03 12:31:05;;;;;;;;;;;;;;;;;;5127227;27;19971;-64
2023/03/03 12:33:31;;;;;;;;;;;;;;;;;;5130238;27;19919;-64
2023/03/03 12:35:57;;;;;;;;;;;;;;;;;;5136270;27;19919;-62
2023/03/03 12:38:23;;;;;;;;;;;;;;;;;;5129989;27;19923;-62
2023/03/03 12:40:50;;;;;;;;;;;;;;;;;;5105170;27;20349;-63
2023/03/03 12:43:17;;;;;;;;;;;;;;;;;;5135963;27;19919;-64
2023/03/03 12:45:43;;;;;;;;;;;;;;;;;;5130272;27;20410;-64
2023/03/03 12:48:09;;;;;;;;;;;;;;;;;;5132567;27;19923;-64
2023/03/03 12:50:35;;;;;;;;;;;;;;;;;;5119831;27;19965;-64
2023/03/03 12:53:01;;;;;;;;;;;;;;;;;;5130273;27;19976;-64
2023/03/03 12:55:27;;;;;;;;;;;;;;;;;;5133720;27;19919;-64
2023/03/03 12:57:52;;;;;;;;;;;;;;;;;;5110457;27;20369;-64
2023/03/03 13:00:18;;;;;;;;;;;;;;;;;;5123831;27;20350;-64
2023/03/03 13:02:44;;;;;;;;;;;;;;;;;;5104333;27;20005;-64
2023/03/03 13:05:10;;;;;;;;;;;;;;;;;;5131493;27;19950;-64
2023/03/03 13:07:36;;;;;;;;;;;;;;;;;;5124384;27;19964;-64
2023/03/03 13:10:02;;;;;;;;;;;;;;;;;;5130059;27;19920;-63
2023/03/03 13:12:28;;;;;;;;;;;;;;;;;;5113241;27;20296;-64
2023/03/03 13:14:54;;;;;;;;;;;;;;;;;;5109006;27;20272;-64
2023/03/03 13:17:20;;;;;;;;;;;;;;;;;;5133775;27;19958;-64
2023/03/03 13:19:45;;;;;;;;;;;;;;;;;;5127943;27;20043;-64
2023/03/03 13:22:11;;;;;;;;;;;;;;;;;;5096118;28;19926;-64
2023/03/03 13:24:37;;;;;;;;;;;;;;;;;;5125964;27;19923;-64
2023/03/03 13:27:03;;;;;;;;;;;;;;;;;;5111610;27;20006;-64
2023/03/03 13:29:29;;;;;;;;;;;;;;;;;;5125822;27;20458;-64
2023/03/03 13:31:55;;;;;;;;;;;;;;;;;;5109804;27;19923;-64
2023/03/03 13:34:21;;;;;;;;;;;;;;;;;;5116286;27;19919;-64
2023/03/03 13:36:49;;;;;;;;;;;;;;;;;;5133773;27;19920;-64
2023/03/03 13:39:15;;;;;;;;;;;;;;;;;;5134762;27;20360;-64
2023/03/03 13:41:41;;;;;;;;;;;;;;;;;;5121555;27;19926;-64
2023/03/03 13:44:07;;;;;;;;;;;;;;;;;;5134225;27;19927;-64
2023/03/03 13:46:33;;;;;;;;;;;;;;;;;;5130926;27;20246;-64
2023/03/03 13:48:59;;;;;;;;;;;;;;;;;;5130991;27;19927;-64
2023/03/03 13:51:25;;;;;;;;;;;;;;;;;;5132872;27;19920;-64
2023/03/03 13:53:51;;;;;;;;;;;;;;;;;;5128514;27;19924;-64
2023/03/03 13:56:17;;;;;;;;;;;;;;;;;;5126624;27;19919;-64
2023/03/03 13:58:43;;;;;;;;;;;;;;;;;;5125471;27;20014;-64
2023/03/03 14:01:09;;;;;;;;;;;;;;;;;;5126541;27;20006;-64
2023/03/03 14:03:35;;;;;;;;;;;;;;;;;;5120918;27;19929;-65
2023/03/03 14:06:00;;;;;;;;;;;;;;;;;;5127073;27;20429;-64
2023/03/03 14:08:26;;;;;;;;;;;;;;;;;;5108760;27;20006;-64
2023/03/03 14:10:52;;;;;;;;;;;;;;;;;;5133255;27;20008;-64
2023/03/03 14:13:18;;;;;;;;;;;;;;;;;;5116923;27;19928;-64
2023/03/03 14:15:44;;;;;;;;;;;;;;;;;;5102255;27;19920;-64
2023/03/03 14:18:10;;;;;;;;;;;;;;;;;;5087684;27;19919;-64
2023/03/03 14:20:36;;;;;;;;;;;;;;;;;;5101890;27;19965;-64
2023/03/03 14:23:02;;;;;;;;;;;;;;;;;;5114372;27;20372;-64
2023/03/03 14:25:27;;;;;;;;;;;;;;;;;;5135550;27;19927;-64
2023/03/03 14:27:53;;;;;;;;;;;;;;;;;;5114941;27;19926;-64
2023/03/03 14:30:19;;;;;;;;;;;;;;;;;;5130715;27;19919;-63
2023/03/03 14:32:45;;;;;;;;;;;;;;;;;;5106390;27;20350;-63
2023/03/03 14:35:11;;;;;;;;;;;;;;;;;;5129906;27;19943;-63
2023/03/03 14:37:37;;;;;;;;;;;;;;;;;;5127950;27;19920;-63
2023/03/03 14:40:03;;;;;;;;;;;;;;;;;;5128666;27;20331;-63
2023/03/03 14:42:29;;;;;;;;;;;;;;;;;;5111524;27;19923;-63
2023/03/03 14:44:55;;;;;;;;;;;;;;;;;;5124676;27;19977;-63
2023/03/03 14:47:21;;;;;;;;;;;;;;;;;;5125170;27;19963;-63
2023/03/03 14:49:47;;;;;;;;;;;;;;;;;;5126561;27;19920;-63
2023/03/03 14:52:12;;;;;;;;;;;;;;;;;;5120352;27;19961;-63
2023/03/03 14:54:38;;;;;;;;;;;;;;;;;;5101062;27;19923;-63
2023/03/03 14:57:04;;;;;;;;;;;;;;;;;;5121509;27;19919;-63
2023/03/03 14:59:30;;;;;;;;;;;;;;;;;;5120474;27;19931;-63
2023/03/03 15:01:56;;;;;;;;;;;;;;;;;;5124226;27;20007;-63
2023/03/03 15:04:22;;;;;;;;;;;;;;;;;;5124266;27;19927;-63
2023/03/03 15:06:48;;;;;;;;;;;;;;;;;;5123884;27;19927;-63
2023/03/03 15:09:14;;;;;;;;;;;;;;;;;;5127148;27;20284;-63
2023/03/03 15:11:40;;;;;;;;;;;;;;;;;;5127496;27;19923;-63
2023/03/03 15:14:06;;;;;;;;;;;;;;;;;;5126121;27;20520;-63
2023/03/03 15:16:32;;;;;;;;;;;;;;;;;;5129797;27;20025;-63
2023/03/03 15:19:00;;;;;;;;;;;;;;;;;;5128541;27;19930;-63
2023/03/03 15:21:26;;;;;;;;;;;;;;;;;;5129857;27;20283;-63
2023/03/03 15:23:52;;;;;;;;;;;;;;;;;;5125769;27;19923;-63
2023/03/03 15:26:18;;;;;;;;;;;;;;;;;;5125806;27;20511;-62
2023/03/03 15:28:44;;;;;;;;;;;;;;;;;;5109472;27;19927;-63
2023/03/03 15:31:11;;;;;;;;;;;;;;;;;;5130542;27;19930;-63
2023/03/03 15:33:37;;;;;;;;;;;;;;;;;;5129106;27;19919;-63
2023/03/03 15:36:03;;;;;;;;;;;;;;;;;;5131679;27;19930;-63
2023/03/03 15:38:29;;;;;;;;;;;;;;;;;;5132505;28;19968;-63
2023/03/03 15:40:55;;;;;;;;;;;;;;;;;;5126720;27;19928;-62
2023/03/03 15:43:21;;;;;;;;;;;;;;;;;;5114372;28;19920;-63
2023/03/03 15:45:47;;;;;;;;;;;;;;;;;;5131512;27;20323;-63
2023/03/03 15:48:13;;;;;;;;;;;;;;;;;;5130635;27;19962;-63
2023/03/03 15:50:39;;;;;;;;;;;;;;;;;;5121791;27;20345;-63
2023/03/03 15:53:05;;;;;;;;;;;;;;;;;;5113211;28;19920;-63
2023/03/03 15:55:31;;;;;;;;;;;;;;;;;;5111615;28;20483;-63
2023/03/03 15:57:57;;;;;;;;;;;;;;;;;;5135370;27;20436;-63
2023/03/03 16:00:22;;;;;;;;;;;;;;;;;;5152474;27;19959;-62
2023/03/03 16:02:48;;;;;;;;;;;;;;;;;;5126986;27;20431;-63
2023/03/03 16:05:15;;;;;;;;;;;;;;;;;;5131611;27;19933;-63
2023/03/03 16:07:41;;;;;;;;;;;;;;;;;;5111987;28;20294;-63
2023/03/03 16:10:10;;;;;;;;;;;;;;;;;;5128176;27;19944;-63
2023/03/03 16:12:36;;;;;;;;;;;;;;;;;;5135136;27;19924;-63
2023/03/03 16:15:02;;;;;;;;;;;;;;;;;;5136484;27;19944;-63
2023/03/03 16:17:28;;;;;;;;;;;;;;;;;;5100941;28;19976;-63
2023/03/03 16:19:54;;;;;;;;;;;;;;;;;;5113319;28;20647;-63
2023/03/03 16:22:20;;;;;;;;;;;;;;;;;;5129866;27;19923;-63
2023/03/03 16:24:46;;;;;;;;;;;;;;;;;;5127280;28;20836;-63
2023/03/03 16:27:15;;;;;;;;;;;;;;;;;;5124792;27;21299;-63
2023/03/03 16:29:41;;;;;;;;;;;;;;;;;;5113611;28;19930;-63
2023/03/03 16:32:07;;;;;;;;;;;;;;;;;;5113616;28;20013;-63
2023/03/03 16:34:33;;;;;;;;;;;;;;;;;;5129138;27;20289;-63
2023/03/03 16:37:00;;;;;;;;;;;;;;;;;;5129747;27;19932;-63